M I D A S
Marine Information and Data Acquisition System
Tripno 740 of the Zeeleeuw from 2004-06-28 06:41:01 to 2004-06-28 13:31:46
Back to CruiseResearch ActivitiesStationsMapUnderway DataData graphs

EquipmentUnitsComment
TimeDGPSUTC
LatitudeDGPSDM.mWGS84
LongitudeDGPSDM.mWGS84
HeadingGyrodeg 
SOGDGPSknotsSpeed over ground
COGDGPSdegCourse over ground
DepthEcho soundermeters200 kHz
Missing or incorrect values are displayed as -999
Navigation data collected by the RV Zeeleeuw from 2004-06-28 06:41:01 to 2004-06-28 13:31:46
Time Latitude Longitude Heading SOG COG Depth
2004-06-28 06:42:04 51°13.6 2°56.078 117 2.4 294 -999
2004-06-28 06:43:05 51°13.628 2°55.988 121.6 4.4 298 -999
2004-06-28 06:44:05 51°13.658 2°55.878 105.8 4.6 285 -999
2004-06-28 06:45:04 51°13.663 2°55.788 78.6 0.8 273 11.6
2004-06-28 06:46:04 51°13.682 2°55.804 14.1 0.2 103 12.9
2004-06-28 06:47:04 51°13.7 2°55.788 327.3 4.4 323 15.1
2004-06-28 06:48:04 51°13.776 2°55.685 328.1 7 324 11.7
2004-06-28 06:49:04 51°13.884 2°55.589 340.8 7.7 335 11.7
2004-06-28 06:50:04 51°14.005 2°55.504 341.3 8.4 336 14
2004-06-28 06:51:04 51°14.142 2°55.413 340.8 9.3 334 14.3
2004-06-28 06:52:04 51°14.272 2°55.249 317.8 10.8 310 13.7
2004-06-28 06:53:04 51°14.4 2°55.027 323.4 12.5 325 13.3
2004-06-28 06:54:04 51°14.585 2°54.844 329.1 13.2 329 12.1
2004-06-28 06:55:05 51°14.778 2°54.66 329.6 13.3 330 11.7
2004-06-28 06:56:02 51°14.959 2°54.492 329.3 13.2 329 11.1
2004-06-28 06:57:04 51°15.155 2°54.307 329.6 13.3 330 11.2
2004-06-28 06:58:05 51°15.349 2°54.128 331 13.2 330 11.8
2004-06-28 06:59:05 51°15.539 2°53.948 330.2 13.3 329 12.5
2004-06-28 07:00:05 51°15.729 2°53.769 330.5 13.3 329 13.4
2004-06-28 07:01:05 51°15.92 2°53.593 330.4 13.1 331 13.9
2004-06-28 07:02:04 51°16.123 2°53.463 340.8 13.5 340 14.3
2004-06-28 07:03:05 51°16.331 2°53.317 335.3 13.3 336 14.6
2004-06-28 07:04:05 51°16.532 2°53.169 335.2 13.4 335 14.5
2004-06-28 07:05:04 51°16.728 2°53.026 335.3 13.2 335 13.7
2004-06-28 07:06:04 51°16.928 2°52.874 335.3 13.3 334 11.7
2004-06-28 07:07:05 51°17.133 2°52.715 334.8 13.6 334 12.1
2004-06-28 07:08:02 51°17.324 2°52.569 335.3 13.5 335 12.3
2004-06-28 07:09:03 51°17.508 2°52.369 319.6 13.2 318 12.8
2004-06-28 07:10:05 51°17.665 2°52.113 312.1 13 311 12.8
2004-06-28 07:11:05 51°17.809 2°51.854 313.3 13 312 12.7
2004-06-28 07:12:05 51°17.954 2°51.599 314.1 13 313 12.9
2004-06-28 07:13:03 51°18.093 2°51.351 311.9 13 310 14
2004-06-28 07:14:05 51°18.234 2°51.075 308 12.9 306 15.3
2004-06-28 07:15:02 51°18.357 2°50.815 307.8 13 307 16
2004-06-28 07:16:03 51°18.489 2°50.534 307.8 12.9 307 16.8
2004-06-28 07:17:05 51°18.622 2°50.252 308.3 12.8 307 16.7
2004-06-28 07:18:05 51°18.75 2°49.978 308.4 12.9 306 15
2004-06-28 07:19:02 51°18.87 2°49.718 308.1 12.7 307 13.5
2004-06-28 07:20:05 51°19.003 2°49.436 307.9 12.7 306 13.6
2004-06-28 07:21:05 51°19.131 2°49.164 308.4 12.9 307 14.8
2004-06-28 07:22:05 51°19.259 2°48.89 307.1 12.9 303 17.8
2004-06-28 07:23:05 51°19.365 2°48.596 300.7 12.8 300 19.6
2004-06-28 07:24:05 51°19.467 2°48.299 297.3 12.7 295 21.8
2004-06-28 07:25:05 51°19.556 2°47.993 296 12.6 295 23.9
2004-06-28 07:26:04 51°19.645 2°47.692 295.3 12.7 295 24.4
2004-06-28 07:27:03 51°19.734 2°47.393 294.6 12.6 293 24.3
2004-06-28 07:28:05 51°19.812 2°47.071 291.4 12.6 290 23.5
2004-06-28 07:29:04 51°19.883 2°46.764 291.6 12.6 291 21.6
2004-06-28 07:30:04 51°19.956 2°46.449 292.3 12.6 290 18.2
2004-06-28 07:31:05 51°20.03 2°46.13 291.9 12.5 290 15.2
2004-06-28 07:32:05 51°20.105 2°45.822 292.5 12.5 291 18.1
2004-06-28 07:33:04 51°20.167 2°45.514 283.5 12.3 281 24
2004-06-28 07:34:03 51°20.202 2°45.195 281.1 12.4 282 25.8
2004-06-28 07:35:04 51°20.239 2°44.865 281.5 12.4 280 26.7
2004-06-28 07:36:05 51°20.278 2°44.534 281.5 12.5 281 27.9
2004-06-28 07:37:04 51°20.317 2°44.213 282.4 12.5 281 29.7
2004-06-28 07:38:03 51°20.357 2°43.895 281.9 12.2 281 29.8
2004-06-28 07:39:05 51°20.399 2°43.563 282.5 12.5 282 29.7
2004-06-28 07:40:05 51°20.439 2°43.237 282.3 12.5 280 28.2
2004-06-28 07:41:05 51°20.478 2°42.91 281.8 12.5 281 25.8
2004-06-28 07:42:05 51°20.516 2°42.584 282.3 12.2 279 24.4
2004-06-28 07:43:05 51°20.553 2°42.261 281.9 12.4 280 20.8
2004-06-28 07:44:05 51°20.583 2°41.94 278.8 12.2 277 21.7
2004-06-28 07:45:05 51°20.611 2°41.616 279.4 12.4 278 20.9
2004-06-28 07:46:05 51°20.638 2°41.291 279.6 12.4 279 29.5
2004-06-28 07:47:03 51°20.665 2°40.975 279.1 12.4 277 28.6
2004-06-28 07:48:05 51°20.694 2°40.636 277.9 12.5 277 29
2004-06-28 07:49:05 51°20.717 2°40.308 277.7 12.5 277 28.6
2004-06-28 07:50:03 51°20.74 2°39.989 278.4 12.4 277 29.3
2004-06-28 07:51:05 51°20.766 2°39.648 278.1 12.5 277 28.5
2004-06-28 07:52:05 51°20.791 2°39.317 278.4 12.5 275 27.7
2004-06-28 07:53:05 51°20.816 2°38.987 278.4 12.5 277 27.4
2004-06-28 07:54:03 51°20.841 2°38.669 278.6 12.4 277 27.1
2004-06-28 07:55:05 51°20.868 2°38.33 278.1 12.4 277 25.7
2004-06-28 07:56:05 51°20.893 2°38 277.5 12.4 276 26.7
2004-06-28 07:57:05 51°20.918 2°37.67 278.4 12.5 277 26.9
2004-06-28 07:58:05 51°20.943 2°37.342 278.8 12.4 277 27
2004-06-28 07:59:05 51°20.969 2°37.017 278.5 12.3 277 26.1
2004-06-28 08:00:05 51°20.992 2°36.693 277.9 12.3 276 26.6
2004-06-28 08:01:05 51°21.018 2°36.367 278.5 12.5 278 28.9
2004-06-28 08:02:05 51°21.043 2°36.041 278.3 12.4 278 30.4
2004-06-28 08:03:05 51°21.072 2°35.718 278.7 12.4 278 31.9
2004-06-28 08:04:03 51°21.098 2°35.4 278 12.5 277 32.8
2004-06-28 08:05:05 51°21.128 2°35.063 278.3 12.4 278 34.2
2004-06-28 08:06:05 51°21.156 2°34.736 278.5 12.4 279 33.9
2004-06-28 08:07:03 51°21.184 2°34.422 278.5 12.5 277 32.8
2004-06-28 08:08:05 51°21.214 2°34.086 278.7 12.3 278 33
2004-06-28 08:09:05 51°21.244 2°33.758 278.4 12.4 278 35.6
2004-06-28 08:10:05 51°21.272 2°33.433 278.5 12.5 277 33.4
2004-06-28 08:11:03 51°21.338 2°33.134 305.7 12.9 309 30.5
2004-06-28 08:12:05 51°21.54 2°32.98 349.9 13.7 354 25.1
2004-06-28 08:13:05 51°21.769 2°32.941 357.9 13.9 358 25.2
2004-06-28 08:14:05 51°22.002 2°32.939 0.9 14 1 30.5
2004-06-28 08:15:05 51°22.236 2°32.941 358.9 13.8 358 33.6
2004-06-28 08:16:05 51°22.467 2°32.951 1.3 13.8 1 33.3
2004-06-28 08:17:05 51°22.672 2°32.831 325.1 13.1 326 33.2
2004-06-28 08:18:05 51°22.786 2°32.552 293.5 12.3 292 33.3
2004-06-28 08:19:03 51°22.811 2°32.242 273.6 12.1 272 32.9
2004-06-28 08:20:05 51°22.817 2°31.907 272.9 12.2 273 33.7
2004-06-28 08:21:05 51°22.826 2°31.585 273.7 12.1 272 33.3
2004-06-28 08:22:11 51°22.808 2°31.233 267.3 12.1 265 32.9
2004-06-28 08:23:10 51°22.791 2°30.917 267.9 12.2 267 28.7
2004-06-28 08:24:10 51°22.783 2°30.592 269.8 12.3 268 33.3
2004-06-28 08:25:10 51°22.777 2°30.268 270 12.1 268 34.8
2004-06-28 08:26:09 51°22.77 2°29.949 270.2 12.1 268 35.2
2004-06-28 08:27:10 51°22.762 2°29.62 270 12.2 268 35.1
2004-06-28 08:28:10 51°22.755 2°29.297 270.1 12.3 267 35.9
2004-06-28 08:29:10 51°22.737 2°28.973 267.1 12.3 265 36.8
2004-06-28 08:30:11 51°22.718 2°28.647 267.3 12.1 265 35.7
2004-06-28 08:31:17 51°22.699 2°28.294 267 12.1 264 35.9
2004-06-28 08:32:17 51°22.681 2°27.972 267 12.3 264 36.8
2004-06-28 08:33:17 51°22.663 2°27.651 267.4 12.2 266 37.8
2004-06-28 08:34:17 51°22.644 2°27.33 267 12.1 264 37
2004-06-28 08:35:17 51°22.624 2°27.006 267.3 12.3 263 36.1
2004-06-28 08:36:23 51°22.632 2°26.647 277.5 12.3 275 35.2
2004-06-28 08:37:23 51°22.665 2°26.322 288.1 12.5 292 34.2
2004-06-28 08:38:23 51°22.819 2°26.094 334 13.4 334 25.3
2004-06-28 08:39:23 51°23.029 2°25.96 339.1 13.6 340 18.6
2004-06-28 08:40:26 51°23.25 2°25.823 338.9 13.7 339 29.6
2004-06-28 08:41:26 51°23.463 2°25.693 340.4 13.7 339 35.1
2004-06-28 08:42:26 51°23.691 2°25.621 354.5 14.3 357 34.9
2004-06-28 08:43:26 51°23.93 2°25.608 3 14.5   36.3
2004-06-28 08:44:25 51°24.165 2°25.619 4.3 14.4 3 35.9
2004-06-28 08:45:26 51°24.409 2°25.639 3.8 14.4 3 36.4
2004-06-28 08:46:26 51°24.65 2°25.655 3.9 14.4   37.9
2004-06-28 08:47:26 51°24.889 2°25.666 3.1 14.2 358 37.1
2004-06-28 08:48:28 51°25.137 2°25.681 3.6 14.4 3 36.8
2004-06-28 08:49:31 51°25.387 2°25.695 3.5 14.2 2 34.9
2004-06-28 08:50:33 51°25.633 2°25.747 13.4 14.7 13 35.8
2004-06-28 08:51:33 51°25.872 2°25.825 14.1 14.8 13 34
2004-06-28 08:52:33 51°26.111 2°25.906 14.1 14.7 13 30.3
2004-06-28 08:53:33 51°26.35 2°25.984 14.8 14.9 14 26.8
2004-06-28 08:54:33 51°26.59 2°26.06 14.5 14.8 13 26
2004-06-28 08:55:33 51°26.831 2°26.139 13.3 14.5 11 28.4
2004-06-28 08:56:33 51°27.072 2°26.215 12.4 14.7 12 31.5
2004-06-28 08:57:33 51°27.312 2°26.294 13.6 14.7 12 33.3
2004-06-28 08:58:33 51°27.552 2°26.368 14.3 14.8 13 35.7
2004-06-28 08:59:33 51°27.794 2°26.447 12.8 14.8 13 36.6
2004-06-28 09:00:33 51°28.035 2°26.525 14.2 14.7 13 36.5
2004-06-28 09:01:30 51°28.266 2°26.6 13.4 14.9 11 37
2004-06-28 09:02:33 51°28.521 2°26.677 11.9 14.9 10 36.9
2004-06-28 09:03:33 51°28.753 2°26.755 12 12.2 8 36.8
2004-06-28 09:04:38 51°28.878 2°26.775 340.8 2.7 14 37
2004-06-28 09:05:38 51°28.89 2°26.819 338.9 1.7 72 -999
2004-06-28 09:06:38 51°28.901 2°26.862 348.6 1.8 66 37.6
2004-06-28 09:07:38 51°28.913 2°26.904 358.8 1.8 60 5
2004-06-28 09:08:37 51°28.93 2°26.944 6.8 1.8 50 37
2004-06-28 09:09:38 51°28.95 2°26.987 14.9 1.9 55 36.9
2004-06-28 09:10:38 51°28.971 2°27.03 14.7 2.1 50 36.5
2004-06-28 09:11:38 51°29.047 2°27.057 353.4 8.2 357 37
2004-06-28 09:12:37 51°29.242 2°26.978 343.7 13.8 343 33.5
2004-06-28 09:13:38 51°29.469 2°26.878 344.6 13.9 344 35.7
2004-06-28 09:14:37 51°29.689 2°26.783 344.8 14 347 31.3
2004-06-28 09:15:37 51°29.914 2°26.689 346.7 14.1 347 30.1
2004-06-28 09:16:38 51°30.144 2°26.595 345.9 14 348 30
2004-06-28 09:17:38 51°30.371 2°26.505 347.2 13.9 345 32.5
2004-06-28 09:18:37 51°30.593 2°26.416 346.2 14 346 33.4
2004-06-28 09:19:38 51°30.822 2°26.325 346.7 13.8 347 35.6
2004-06-28 09:20:37 51°31.045 2°26.24 346 14.1 348 40.6
2004-06-28 09:21:37 51°31.272 2°26.153 345.6 13.9 346 42
2004-06-28 09:22:37 51°31.5 2°26.067 346 14 346 41.4
2004-06-28 09:23:38 51°31.731 2°25.981 346.4 13.9 346 40.1
2004-06-28 09:24:37 51°31.959 2°25.926 0.6 14   39.5
2004-06-28 09:25:37 51°32.199 2°25.971 6.6 14.6 8 41.6
2004-06-28 09:26:37 51°32.439 2°26.015 7.4 14.5 8 41.4
2004-06-28 09:27:38 51°32.682 2°26.058 7.3 14.4 7 40.2
2004-06-28 09:28:38 51°32.92 2°26.112 13.6 14.7 11 39.8
2004-06-28 09:29:38 51°33.153 2°26.236 20 14.7 19 38.9
2004-06-28 09:30:37 51°33.377 2°26.363 26.1 14.6 23 38.1
2004-06-28 09:31:38 51°33.6 2°26.548 28.8 14.6 30 37.6
2004-06-28 09:32:37 51°33.815 2°26.718 28.6 14.9 26 38.7
2004-06-28 09:33:41 51°34.047 2°26.916 35.5 15 34 37.9
2004-06-28 09:34:41 51°34.249 2°27.138 38 14.9 33 38.8
2004-06-28 09:35:41 51°34.456 2°27.356 36.2 15 33 35
2004-06-28 09:36:41 51°34.664 2°27.56 34.8 14.7 31 35.5
2004-06-28 09:37:41 51°34.869 2°27.771 36.2 14.9 32 38
2004-06-28 09:38:41 51°35.075 2°27.992 39.4 14.9 34 32.2
2004-06-28 09:39:46 51°35.294 2°28.235 38.2 14.7 34 38.7
2004-06-28 09:40:53 51°35.522 2°28.482 37.1 14.8 33 36
2004-06-28 09:41:53 51°35.728 2°28.704 37.6 15.2 33 35.7
2004-06-28 09:42:53 51°35.932 2°28.921 36.6 14.5 35 33.1
2004-06-28 09:43:53 51°36.134 2°29.146 37.4 14.9 34 36.8
2004-06-28 09:44:53 51°36.338 2°29.367 37 15.1 32 36.4
2004-06-28 09:45:55 51°36.55 2°29.594 36.6 14.9 33 36.7
2004-06-28 09:46:55 51°36.754 2°29.816 35.4 14.7 32 35.7
2004-06-28 09:47:54 51°36.957 2°30.031 37.1 14.8 34 38.3
2004-06-28 09:48:55 51°37.162 2°30.255 36.1 14.4 34 36.7
2004-06-28 09:49:55 51°37.356 2°30.499 45.9 14.9 41 36.8
2004-06-28 09:50:56 51°37.547 2°30.761 44.1 14.7 42 37.1
2004-06-28 09:51:55 51°37.731 2°31.018 43.4 14.7 43 38.2
2004-06-28 09:52:56 51°37.92 2°31.284 43 14.8 38 39.4
2004-06-28 09:53:55 51°38.108 2°31.536 43.3 14.6 40 39.4
2004-06-28 09:54:55 51°38.294 2°31.797 43.1 14.7 41 41.6
2004-06-28 09:55:55 51°38.482 2°32.055 44.1 14.5 38 42.6
2004-06-28 09:56:55 51°38.674 2°32.309 41.4 14.9 37 41.7
2004-06-28 09:57:56 51°38.867 2°32.564 41.6 14.9 37 42.6
2004-06-28 09:58:55 51°39.064 2°32.793 41.4 14.9 38 42.7
2004-06-28 09:59:55 51°39.262 2°33.028 40 14.4 36 41.5
2004-06-28 10:00:56 51°39.469 2°33.262 40.4 14.9 33 43.8
2004-06-28 10:01:56 51°39.667 2°33.498 39.8 14.7 34 42.6
2004-06-28 10:02:55 51°39.863 2°33.729 39.1 14.7 32 47.3
2004-06-28 10:03:59 51°40.074 2°33.98 39.1 14.9 36 41.5
2004-06-28 10:04:59 51°40.277 2°34.213 38.4 14.8 35 38.8
2004-06-28 10:05:58 51°40.472 2°34.445 41.8 14.7 37 39.4
2004-06-28 10:06:59 51°40.674 2°34.682 41.3 14.7 36 37.7
2004-06-28 10:07:58 51°40.869 2°34.915 40.6 15 38 37.7
2004-06-28 10:08:59 51°41.074 2°35.151 39.9 14.8 34 36.4
2004-06-28 10:09:59 51°41.275 2°35.385 41.7 14.9 35 30
2004-06-28 10:10:59 51°41.474 2°35.611 40.1 14.8 34 30.9
2004-06-28 10:11:59 51°41.671 2°35.844 40.3 14.4 37 27.7
2004-06-28 10:12:58 51°41.867 2°36.075 41.6 14.6 38 29.4
2004-06-28 10:13:58 51°42.063 2°36.311 42.3 14.9 38 30
2004-06-28 10:15:02 51°42.198 2°36.653 78 14.1 74 25.4
2004-06-28 10:16:03 51°42.236 2°37.035 95.8 14.1 91 30.7
2004-06-28 10:17:03 51°42.161 2°37.379 122.4 13.8 118 36.5
2004-06-28 10:18:06 51°42.036 2°37.701 133.1 13.6 124 38.6
2004-06-28 10:19:05 51°41.907 2°37.99 133.1 13.5 124 39.9
2004-06-28 10:20:07 51°41.775 2°38.294 132 13.3 124 40.8
2004-06-28 10:21:06 51°41.657 2°38.595 132.6 13.5 120 39.2
2004-06-28 10:22:07 51°41.538 2°38.901 131.9 13.2 125 38.7
2004-06-28 10:23:07 51°41.421 2°39.205 131.3 13.3 121 39.7
2004-06-28 10:24:07 51°41.306 2°39.51 131.7 13.4 120 38.6
2004-06-28 10:25:07 51°41.192 2°39.821 131.5 13.6 118 40.3
2004-06-28 10:26:07 51°41.078 2°40.133 128.1 13.4 119 38.7
2004-06-28 10:27:06 51°40.961 2°40.434 130.8 13.5 120 38.8
2004-06-28 10:28:05 51°40.851 2°40.744 130.1 13.7 119 39.4
2004-06-28 10:29:05 51°40.743 2°41.063 125.3 13.6 117 39.4
2004-06-28 10:30:05 51°40.636 2°41.382 127.7 13.5 121 37.2
2004-06-28 10:31:07 51°40.521 2°41.706 128.8 13.8 118 37.4
2004-06-28 10:32:07 51°40.41 2°42.018 128.1 13.3 122 33.8
2004-06-28 10:33:07 51°40.3 2°42.332 128.4 13.6 117 31
2004-06-28 10:34:07 51°40.187 2°42.652 127.6 13.8 120 32
2004-06-28 10:35:07 51°40.075 2°42.967 128.9 13.4 117 33.2
2004-06-28 10:36:06 51°39.968 2°43.27 126.8 13.2 119 36.7
2004-06-28 10:37:07 51°39.857 2°43.587 127.5 13.7 119 36.2
2004-06-28 10:38:07 51°39.746 2°43.901 129 13.3 119 38.3
2004-06-28 10:39:06 51°39.64 2°44.208 127.7 13.4 116 36.2
2004-06-28 10:40:05 51°39.534 2°44.518 129.4 13.5 125 36.2
2004-06-28 10:41:07 51°39.412 2°44.831 136.6 13 134 36.7
2004-06-28 10:42:07 51°39.23 2°45.001 168.3 12.6 161 32.8
2004-06-28 10:43:07 51°39.028 2°45.071 182.9 12.1 181 37.5
2004-06-28 10:44:07 51°38.825 2°45.026 195.5 12.2 189 33
2004-06-28 10:45:07 51°38.624 2°44.973 194.4 12.1 188 36.9
2004-06-28 10:46:07 51°38.427 2°44.905 198.7 12.2 194 35.5
2004-06-28 10:47:07 51°38.231 2°44.819 200.7 12.3 197 34.1
2004-06-28 10:48:05 51°38.045 2°44.721 203.9 12 197 36.3
2004-06-28 10:49:07 51°37.887 2°44.516 236 12.3 235 39.1
2004-06-28 10:50:06 51°37.823 2°44.208 257.2 12.4 257 35.8
2004-06-28 10:51:06 51°37.774 2°43.883 258.3 12.5 256 35.8
2004-06-28 10:52:06 51°37.761 2°43.552 275.6 12.9 278 37.3
2004-06-28 10:53:07 51°37.805 2°43.206 282 13 283 36.8
2004-06-28 10:54:07 51°37.854 2°42.866 283.4 13 283 37.9
2004-06-28 10:55:07 51°37.901 2°42.525 283.5 13 283 36.7
2004-06-28 10:56:07 51°37.947 2°42.183 282.9 13 282 35.2
2004-06-28 10:57:07 51°37.991 2°41.842 282.1 13.1 282 28.2
2004-06-28 10:58:05 51°38.035 2°41.514 282.8 12.8 283 18.9
2004-06-28 10:59:06 51°38.061 2°41.17 269.2 12.6 267 23.3
2004-06-28 11:00:07 51°38.011 2°40.841 254.9 12.5 254 22.2
2004-06-28 11:01:07 51°37.954 2°40.518 254 12.5 249 27.8
2004-06-28 11:02:07 51°37.857 2°40.224 241.6 12.4 240 32.3
2004-06-28 11:03:06 51°37.737 2°39.964 229.8 12.3 228 35.4
2004-06-28 11:04:07 51°37.598 2°39.72 229.7 12 223 38
2004-06-28 11:05:07 51°37.406 2°39.646 186.4 12.3 182 37.1
2004-06-28 11:06:07 51°37.2 2°39.634 188.9 12.3 185 36.4
2004-06-28 11:07:07 51°36.996 2°39.606 189.6 12.3 184 36.1
2004-06-28 11:08:07 51°36.791 2°39.571 190.8 12.3 187 35.2
2004-06-28 11:09:06 51°36.59 2°39.538 189.6 12.3 186 34.8
2004-06-28 11:10:07 51°36.38 2°39.507 190.6 12.4 185 34.1
2004-06-28 11:11:07 51°36.174 2°39.474 189.8 12.6 182 34.4
2004-06-28 11:12:07 51°35.967 2°39.437 192.8 12.5 188 33.3
2004-06-28 11:13:07 51°35.764 2°39.374 194.8 12.4 190 34.5
2004-06-28 11:14:06 51°35.563 2°39.322 194.5 12.6 191 33.2
2004-06-28 11:15:07 51°35.356 2°39.267 194.5 12.2 189 33.4
2004-06-28 11:16:07 51°35.153 2°39.234 181.8 12.5 173 33
2004-06-28 11:17:07 51°34.968 2°39.387 151.8 12.7 146 30.4
2004-06-28 11:18:07 51°34.79 2°39.587 152.5 12.9 146 28.4
2004-06-28 11:19:07 51°34.61 2°39.779 153.4 12.9 151 24.5
2004-06-28 11:20:07 51°34.446 2°40.009 141.1 13 135 18.9
2004-06-28 11:21:07 51°34.295 2°40.258 138.8 13.3 134 22.8
2004-06-28 11:22:11 51°34.128 2°40.518 147.6 12.9 145 37.8
2004-06-28 11:23:11 51°33.929 2°40.635 170.7 13 167 38
2004-06-28 11:24:11 51°33.719 2°40.723 170.5 13 168 41.9
2004-06-28 11:25:11 51°33.508 2°40.74 190.9 12.8 186 39.3
2004-06-28 11:26:09 51°33.304 2°40.712 189.6 12.7 184 39.1
2004-06-28 11:27:11 51°33.086 2°40.688 188.3 12.8 184 39.4
2004-06-28 11:28:10 51°32.877 2°40.669 188.3 12.7 183 39.5
2004-06-28 11:29:11 51°32.668 2°40.607 204 12.7 202 38.6
2004-06-28 11:30:11 51°32.475 2°40.474 206.1 12.8 203 38.3
2004-06-28 11:31:10 51°32.283 2°40.353 205 12.9 202 38.1
2004-06-28 11:32:11 51°32.081 2°40.241 199.1 12.6 195 37.8
2004-06-28 11:33:10 51°31.881 2°40.155 199.4 12.6 193 39.3
2004-06-28 11:34:11 51°31.675 2°40.062 198 12.7 195 38.9
2004-06-28 11:35:11 51°31.477 2°39.943 205.8 12.4 202 35.3
2004-06-28 11:36:11 51°31.282 2°39.816 206.1 12.8 201 34.7
2004-06-28 11:37:11 51°31.086 2°39.687 206 12.7 202 39.5
2004-06-28 11:38:11 51°30.891 2°39.561 205.3 12.6 202 39.5
2004-06-28 11:39:10 51°30.698 2°39.437 205 12.7 203 39.5
2004-06-28 11:40:11 51°30.512 2°39.274 222.2 12.5 224 39.3
2004-06-28 11:41:11 51°30.394 2°38.993 239.8 12.9 238 38.9
2004-06-28 11:42:11 51°30.276 2°38.708 238.3 12.8 234 39.4
2004-06-28 11:43:11 51°30.154 2°38.425 237.5 12.9 237 38.7
2004-06-28 11:44:11 51°30.031 2°38.141 237.1 13.1 235 37.7
2004-06-28 11:45:10 51°29.909 2°37.862 236.6 12.9 235 37.3
2004-06-28 11:46:09 51°29.786 2°37.585 236.5 12.9 235 34.6
2004-06-28 11:47:11 51°29.656 2°37.293 235.7 13.1 234 29.6
2004-06-28 11:48:11 51°29.532 2°37.006 236.4 13.1 236 26.4
2004-06-28 11:49:11 51°29.406 2°36.721 236.5 13.3 233 28.1
2004-06-28 11:50:11 51°29.281 2°36.435 236.3 13.1 235 29.3
2004-06-28 11:51:11 51°29.157 2°36.15 236.5 13.1 234 32.3
2004-06-28 11:52:11 51°29.031 2°35.866 235.5 13 235 33.8
2004-06-28 11:53:11 51°28.909 2°35.58 236.1 12.9 236 34.6
2004-06-28 11:54:11 51°28.733 2°35.408 203.7 12.7 201 34.2
2004-06-28 11:55:11 51°28.522 2°35.374 181 13 177 34.4
2004-06-28 11:56:11 51°28.31 2°35.43 170.2 13.1 165 32.8
2004-06-28 11:57:11 51°28.098 2°35.505 171.5 13 169 24.9
2004-06-28 11:58:11 51°27.883 2°35.57 172.4 13.3 168 27.7
2004-06-28 11:59:11 51°27.667 2°35.631 172.2 13.1 171 27.9
2004-06-28 12:00:10 51°27.452 2°35.684 172.8 13 169 26
2004-06-28 12:01:11 51°27.232 2°35.745 173.4 13.3 170 32
2004-06-28 12:02:11 51°27.016 2°35.804 172.9 13.3 172 32
2004-06-28 12:03:11 51°26.8 2°35.863 173.6 13.1 172 32.8
2004-06-28 12:04:15 51°26.568 2°35.922 173.4 13.2 170 33
2004-06-28 12:05:15 51°26.352 2°35.99 169.1 13.5 167 33.6
2004-06-28 12:06:15 51°26.139 2°36.075 168.7 13.1 165 34.1
2004-06-28 12:07:14 51°25.931 2°36.153 169.3 13.1 167 33
2004-06-28 12:08:15 51°25.714 2°36.237 168.4 12.9 164 33.9
2004-06-28 12:09:15 51°25.506 2°36.324 167.1 13.1 163 33.7
2004-06-28 12:10:15 51°25.301 2°36.427 165.5 12.8 162 35.4
2004-06-28 12:11:15 51°25.096 2°36.55 163 13.2 162 34.1
2004-06-28 12:12:15 51°24.891 2°36.67 163.1 13.1 159 32.3
2004-06-28 12:13:15 51°24.689 2°36.808 158.9 13.1 158 31.4
2004-06-28 12:14:15 51°24.484 2°36.947 160.7 13.2 155 31.5
2004-06-28 12:15:22 51°24.254 2°37.095 159.6 13.4 158 31.3
2004-06-28 12:16:24 51°24.043 2°37.235 160.1 13.3 161 27.4
2004-06-28 12:17:24 51°23.841 2°37.37 160.8 13 158 24.4
2004-06-28 12:18:23 51°23.642 2°37.5 161.3 13.1 159 24.3
2004-06-28 12:19:25 51°23.425 2°37.61 169.2 13.2 167 25.1
2004-06-28 12:20:23 51°23.219 2°37.677 170.5 13.2 169 27.4
2004-06-28 12:21:24 51°23 2°37.75 170.9 13.1 169 25.7
2004-06-28 12:22:23 51°22.788 2°37.821 169.9 13.4 166 30
2004-06-28 12:23:23 51°22.571 2°37.89 170.2 13.4 168 30.9
2004-06-28 12:24:24 51°22.351 2°37.962 169.2 13.3 169 30
2004-06-28 12:25:23 51°22.139 2°38.029 170.6 13.1 170 29.2
2004-06-28 12:26:23 51°21.922 2°38.097 170.3 13.3 169 29.6
2004-06-28 12:27:23 51°21.706 2°38.172 166 13.4 160 27
2004-06-28 12:28:23 51°21.503 2°38.318 156.5 13.3 154 26.1
2004-06-28 12:29:23 51°21.3 2°38.473 156 13.6 153 25.8
2004-06-28 12:30:23 51°21.124 2°38.688 138.9 13.5 138 24.6
2004-06-28 12:31:24 51°20.954 2°38.929 140.8 13.4 138 25
2004-06-28 12:32:23 51°20.789 2°39.151 143.4 13.1 142 25
2004-06-28 12:33:25 51°20.665 2°39.448 115.2 13.2 114 25.5
2004-06-28 12:34:23 51°20.652 2°39.781 89.9 13.1 86 25.5
2004-06-28 12:35:23 51°20.661 2°40.132 95.7 13.2 93 26.9
2004-06-28 12:36:24 51°20.64 2°40.491 99.4 13.4 96 27.5
2004-06-28 12:37:25 51°20.615 2°40.845 100.9 13.4 99 26.8
2004-06-28 12:38:24 51°20.593 2°41.192 99 13.4 96 27.7
2004-06-28 12:39:24 51°20.571 2°41.543 99.6 13.2 97 20.5
2004-06-28 12:40:24 51°20.549 2°41.888 99.1 13 94 21.1
2004-06-28 12:41:24 51°20.526 2°42.232 99.4 12.8 95 19.2
2004-06-28 12:42:24 51°20.504 2°42.572 98.8 12.9 96 22
2004-06-28 12:43:23 51°20.476 2°42.91 99.4 13.2 97 22.7
2004-06-28 12:44:23 51°20.454 2°43.257 98 13.2 97 25.7
2004-06-28 12:45:21 51°20.412 2°43.589 103.6 13.2 101 27.1
2004-06-28 12:46:24 51°20.367 2°43.952 104.2 13.4 101 27
2004-06-28 12:47:24 51°20.324 2°44.296 107.3 13.1 107 26.8
2004-06-28 12:48:23 51°20.241 2°44.612 115.2 13.3 115 24.9
2004-06-28 12:49:24 51°20.155 2°44.942 114 13.4 111 23.5
2004-06-28 12:50:25 51°20.063 2°45.273 114 13.4 113 22.3
2004-06-28 12:51:24 51°19.983 2°45.595 114.4 12.9 110 15.2
2004-06-28 12:52:25 51°19.901 2°45.915 113.2 12.6 111 12.6
2004-06-28 12:53:25 51°19.818 2°46.229 114 13 113 15.4
2004-06-28 12:54:23 51°19.712 2°46.518 125.7 13.1 125 18.7
2004-06-28 12:55:23 51°19.591 2°46.812 125 13.3 124 20.4
2004-06-28 12:56:23 51°19.467 2°47.108 126.6 13.6 126 21.5
2004-06-28 12:57:24 51°19.352 2°47.414 119.8 13.1 119 21
2004-06-28 12:58:24 51°19.245 2°47.722 120.3 13.4 120 19.8
2004-06-28 12:59:23 51°19.139 2°48.027 122.2 13.3 120 17.8
2004-06-28 13:00:25 51°19.027 2°48.342 120.1 13.1 121 15.8
2004-06-28 13:01:24 51°18.925 2°48.64 119.2 13.1 118 13.6
2004-06-28 13:02:23 51°18.825 2°48.937 119.2 12.7 118 11
2004-06-28 13:03:24 51°18.722 2°49.24 120.4 12.7 119 10.9
2004-06-28 13:04:24 51°18.619 2°49.536 119 12.9 120 10.5
2004-06-28 13:05:23 51°18.516 2°49.833 120.1 13.2 118 12.7
2004-06-28 13:06:23 51°18.409 2°50.139 120.4 13.1 118 13.9
2004-06-28 13:07:23 51°18.299 2°50.442 124.4 13.2 122 13.5
2004-06-28 13:08:23 51°18.166 2°50.717 128.4 13.1 127 12.8
2004-06-28 13:09:27 51°18.026 2°51.01 128 12.8 130 11.6
2004-06-28 13:10:27 51°17.897 2°51.285 125.7 13.1 126 10.2
2004-06-28 13:11:27 51°17.766 2°51.56 128.8 12.9 126 9.3
2004-06-28 13:12:27 51°17.627 2°51.827 137.1 13.3 138 9.8
2004-06-28 13:13:27 51°17.462 2°52.064 138.2 13.4 138 9.9
2004-06-28 13:14:27 51°17.269 2°52.237 159.6 13.2 164 9.9
2004-06-28 13:15:27 51°17.051 2°52.332 163.8 13.4 164 9.5
2004-06-28 13:16:27 51°16.838 2°52.443 162.8 13.4 161 9.5
2004-06-28 13:17:33 51°16.602 2°52.571 161.1 13.8 161 10.6
2004-06-28 13:18:31 51°16.395 2°52.69 160.6 13.4 160 11.6
2004-06-28 13:19:32 51°16.178 2°52.815 158.6 13.6 159 11.9
2004-06-28 13:20:32 51°15.968 2°52.947 157.2 13.6 161 11.6
2004-06-28 13:21:32 51°15.758 2°53.083 157.5 13.7 156 11.1
2004-06-28 13:22:34 51°15.55 2°53.245 153.1 13.5 154 10.5
2004-06-28 13:23:34 51°15.354 2°53.416 149.5 13.3 150 9.7
2004-06-28 13:24:33 51°15.171 2°53.601 141.9 13.3 142 9.1
2004-06-28 13:25:33 51°15.005 2°53.826 136.4 13 137 9
2004-06-28 13:26:33 51°14.849 2°54.053 137 12.6 137 8.9
2004-06-28 13:27:33 51°14.711 2°54.294 130.8 12.4 131 9.5
2004-06-28 13:28:34 51°14.577 2°54.548 128.5 12.1 128 9.5
2004-06-28 13:29:34 51°14.459 2°54.812 125.8 12 126 10.2
2004-06-28 13:30:34 51°14.356 2°55.08 123.2 11.7 122 10
2004-06-28 13:31:34 51°14.251 2°55.286 138.1 8.9 135 11